Time;durP1;ratioP1;P1;durP2;ratioP2;P2;SDS_P1;SDS_P2;PMS_P1;PMS_P2;Temp;Humidity;BMP_temperature;BMP_pressure;BME280_temperature;BME280_humidity;BME280_pressure;Samples;Min_cycle;Max_cycle;Signal;HPM_P1;HPM_P2
2023/05/13 00:00:50;;;;;;;15.10;8.20;;;;;;;10.89;75.58;100666.22;181423;1262;42973;-59
2023/05/13 00:04:53;;;;;;;33.20;8.70;;;;;;;10.87;75.49;100663.52;181324;1262;58348;-60
2023/05/13 00:08:55;;;;;;;13.20;8.20;;;;;;;10.82;74.83;100664.83;181372;1262;43631;-60
2023/05/13 00:13:03;;;;;;;12.20;7.60;;;;;;;10.75;75.76;100671.15;181382;1261;43348;-60
2023/05/13 00:17:06;;;;;;;9.40;6.90;;;;;;;10.60;77.07;100675.30;181397;1262;43046;-60
2023/05/13 00:21:09;;;;;;;20.70;7.70;;;;;;;10.54;77.09;100676.30;181337;1262;43080;-60
2023/05/13 00:25:12;;;;;;;12.30;8.20;;;;;;;10.56;77.33;100679.90;181350;1263;59171;-60
2023/05/13 00:29:14;;;;;;;8.10;7.30;;;;;;;10.55;78.36;100679.80;181362;1262;43068;-60
2023/05/13 00:33:17;;;;;;;10.30;7.70;;;;;;;10.47;78.03;100679.90;181372;1262;42988;-59
2023/05/13 00:37:20;;;;;;;12.30;9.00;;;;;;;10.37;78.06;100686.58;181416;1262;43090;-60
2023/05/13 00:41:23;;;;;;;9.80;6.90;;;;;;;10.30;78.21;100685.85;181371;1262;43420;-60
2023/05/13 00:45:26;;;;;;;9.50;8.00;;;;;;;10.24;78.79;100687.55;181297;1262;58018;-60
2023/05/13 00:54:29;;;;;;;14.20;8.40;;;;;;;10.15;80.05;100692.61;181375;1262;43112;-60
2023/05/13 00:58:34;;;;;;;10.90;7.40;;;;;;;10.14;80.01;100688.08;181310;1261;43866;-60
2023/05/13 01:02:56;;;;;;;12.40;6.60;;;;;;;10.14;80.78;100688.45;181280;1262;43429;-60
2023/05/13 01:07:09;;;;;;;9.50;7.30;;;;;;;10.18;79.91;100691.69;181287;1262;57915;-59
2023/05/13 01:11:23;;;;;;;8.70;6.60;;;;;;;10.31;77.78;100689.89;181449;1263;43050;-60
2023/05/13 01:15:27;;;;;;;11.40;7.20;;;;;;;10.47;76.81;100680.41;181442;1262;43755;-60
2023/05/13 01:19:53;;;;;;;11.60;6.60;;;;;;;10.68;75.37;100683.81;181356;1262;43070;-60
2023/05/13 01:23:56;;;;;;;14.40;6.80;;;;;;;10.87;75.10;100684.44;181291;1262;43724;-60
2023/05/13 01:27:59;;;;;;;19.60;8.50;;;;;;;11.01;74.64;100686.76;181318;1265;58277;-59
2023/05/13 01:32:08;;;;;;;9.50;6.60;;;;;;;11.12;74.06;100684.34;181399;1262;43311;-59
2023/05/13 01:36:11;;;;;;;10.70;8.00;;;;;;;11.18;74.23;100684.23;181361;1262;43640;-60
2023/05/13 01:40:16;;;;;;;7.40;6.50;;;;;;;11.20;74.16;100684.05;181372;1262;43121;-59
2023/05/13 01:44:34;;;;;;;11.10;7.90;;;;;;;11.20;73.97;100682.85;181410;1260;43477;-59
2023/05/13 01:48:37;;;;;;;13.00;7.80;;;;;;;11.24;73.84;100685.52;181407;1262;58057;-60
2023/05/13 01:52:40;;;;;;;8.80;7.50;;;;;;;11.27;73.65;100691.70;181386;1262;43736;-59
2023/05/13 01:56:42;;;;;;;11.30;7.40;;;;;;;11.25;73.47;100694.90;181405;1263;42999;-59
2023/05/13 02:00:45;;;;;;;12.20;7.80;;;;;;;11.22;73.86;100692.30;181366;1262;43596;-60
2023/05/13 02:04:48;;;;;;;8.60;7.50;;;;;;;11.17;73.76;100691.73;181431;1263;42987;-60
2023/05/13 02:08:51;;;;;;;13.60;7.60;;;;;;;11.12;73.73;100693.73;181433;1264;58036;-60
2023/05/13 02:12:54;;;;;;;7.90;7.10;;;;;;;11.03;74.39;100694.98;181236;1262;43549;-60
2023/05/13 02:16:56;;;;;;;7.50;6.70;;;;;;;10.95;74.56;100692.36;181317;1262;43005;-59
2023/05/13 02:20:59;;;;;;;10.70;8.30;;;;;;;10.85;74.68;100685.84;181406;1262;43096;-60
2023/05/13 02:25:03;;;;;;;9.70;8.50;;;;;;;10.76;74.56;100686.38;181296;1264;43463;-60
2023/05/13 02:29:06;;;;;;;11.00;8.60;;;;;;;10.69;74.69;100685.98;181279;1262;57098;-60
2023/05/13 02:33:10;;;;;;;12.00;9.40;;;;;;;10.62;74.78;100683.51;181242;1262;43235;-60
2023/05/13 02:37:13;;;;;;;12.00;9.30;;;;;;;10.54;75.08;100679.34;181323;1262;43068;-59
2023/05/13 02:41:16;;;;;;;10.00;8.10;;;;;;;10.45;75.44;100681.39;181295;1264;43849;-60
2023/05/13 02:45:18;;;;;;;15.60;8.40;;;;;;;10.39;75.66;100690.11;181323;1263;43040;-60
2023/05/13 02:49:21;;;;;;;16.40;10.00;;;;;;;10.30;75.98;100691.14;181325;1264;57242;-60
2023/05/13 02:53:24;;;;;;;15.20;9.60;;;;;;;10.20;76.45;100693.85;181349;1264;43333;-60
2023/05/13 02:57:27;;;;;;;16.50;10.00;;;;;;;10.14;76.25;100694.84;181422;1264;43679;-59
2023/05/13 03:01:30;;;;;;;14.20;8.70;;;;;;;10.05;76.47;100701.84;181392;1263;43364;-60
2023/05/13 03:05:33;;;;;;;14.00;9.30;;;;;;;9.98;76.74;100703.58;181436;1262;43678;-60
2023/05/13 03:09:38;;;;;;;15.00;10.00;;;;;;;9.93;77.23;100705.91;181249;1263;58192;-60
2023/05/13 03:13:41;;;;;;;14.40;10.20;;;;;;;9.87;77.75;100708.60;181328;1265;43111;-60
2023/05/13 03:17:44;;;;;;;10.60;7.70;;;;;;;9.83;78.27;100711.25;181241;1262;43524;-61
2023/05/13 03:21:47;;;;;;;16.30;12.30;;;;;;;9.82;78.43;100704.04;181348;1263;43322;-60
2023/05/13 03:26:15;;;;;;;17.70;13.20;;;;;;;9.84;78.36;100704.61;181355;1263;43794;-60
2023/05/13 03:30:18;;;;;;;13.40;11.70;;;;;;;9.85;78.28;100710.36;181349;1263;58624;-60
2023/05/13 03:38:45;;;;;;;13.80;10.40;;;;;;;9.75;78.33;100706.83;153206;1260;83642;-60
2023/05/13 03:42:48;;;;;;;11.70;10.00;;;;;;;9.74;78.76;100708.98;181628;1260;43045;-60
2023/05/13 03:46:50;;;;;;;18.30;10.10;;;;;;;9.81;79.37;100713.30;181628;1259;43671;-60
2023/05/13 03:51:21;;;;;;;14.40;10.20;;;;;;;9.91;79.57;100717.77;181533;1260;58115;-60
2023/05/13 03:55:24;;;;;;;18.90;11.50;;;;;;;10.02;79.92;100721.55;181575;1260;43341;-61
2023/05/13 03:59:38;;;;;;;12.90;9.30;;;;;;;10.23;81.60;100719.14;181599;1260;43044;-60
2023/05/13 04:03:44;;;;;;;13.40;10.10;;;;;;;10.92;81.04;100720.67;181489;1259;178321;-60
2023/05/13 04:07:46;;;;;;;;;;;;;;;11.83;79.05;100726.74;181540;1260;43712;-61
2023/05/13 04:11:49;;;;;;;10.30;9.00;;;;;;;12.88;75.20;100723.93;181566;1260;58026;-60
2023/05/13 04:15:54;;;;;;;17.20;8.60;;;;;;;13.81;72.00;100726.27;181626;1260;43708;-60
2023/05/13 04:20:03;;;;;;;9.50;8.50;;;;;;;14.59;69.58;100719.34;181584;1260;43719;-61
2023/05/13 04:24:06;;;;;;;11.40;8.00;;;;;;;15.26;67.53;100721.42;181510;1260;43079;-60
2023/05/13 04:28:08;;;;;;;9.50;7.90;;;;;;;15.83;65.24;100721.30;181638;1260;43073;-60
2023/05/13 04:32:16;;;;;;;11.90;7.60;;;;;;;16.49;63.72;100720.48;181593;1259;58381;-61
2023/05/13 04:36:19;;;;;;;11.00;7.20;;;;;;;17.09;60.90;100725.63;181321;1260;43118;-61
2023/05/13 04:40:22;;;;;;;9.00;7.50;;;;;;;17.61;58.40;100723.30;181591;1260;43030;-61
2023/05/13 04:44:25;;;;;;;10.10;6.80;;;;;;;17.92;56.25;100735.10;181489;1260;43130;-60
2023/05/13 04:48:28;;;;;;;11.60;7.40;;;;;;;18.22;55.50;100736.30;181543;1260;43673;-60
2023/05/13 04:52:33;;;;;;;11.60;7.30;;;;;;;18.54;55.95;100736.11;181618;1259;58194;-61
2023/05/13 04:56:36;;;;;;;7.00;5.40;;;;;;;18.85;55.09;100738.30;181672;1259;43681;-60
2023/05/13 05:01:06;;;;;;;13.90;7.50;;;;;;;18.97;54.46;100741.50;181547;1260;43032;-60
2023/05/13 05:05:08;;;;;;;14.10;7.20;;;;;;;19.05;54.27;100735.52;181590;1260;43098;-60
2023/05/13 05:09:11;;;;;;;10.20;6.60;;;;;;;19.10;53.76;100734.88;181603;1260;43753;-60
2023/05/13 05:13:23;;;;;;;10.80;7.20;;;;;;;19.13;53.41;100737.50;181522;1263;57895;-61
2023/05/13 05:17:27;;;;;;;10.70;7.20;;;;;;;19.33;53.12;100736.47;181458;1259;43680;-60
2023/05/13 05:22:03;;;;;;;8.50;6.70;;;;;;;19.49;53.30;100742.98;181587;1260;43705;-61
2023/05/13 05:26:05;;;;;;;11.90;6.60;;;;;;;19.56;52.89;100750.70;181635;1260;43113;-61
2023/05/13 05:30:14;;;;;;;13.80;6.50;;;;;;;19.57;53.17;100745.17;181469;1259;43025;-60
2023/05/13 05:34:22;;;;;;;8.30;6.10;;;;;;;19.56;52.06;100749.55;181581;1260;58158;-61
2023/05/13 05:38:24;;;;;;;8.90;7.30;;;;;;;19.44;52.30;100748.59;181453;1260;43426;-61
2023/05/13 05:42:27;;;;;;;8.40;6.80;;;;;;;19.34;52.89;100745.55;181657;1259;43036;-60
2023/05/13 05:46:30;;;;;;;15.00;7.50;;;;;;;19.43;52.36;100750.11;181584;1260;43530;-60
2023/05/13 05:51:10;;;;;;;9.90;6.60;;;;;;;19.33;51.97;100752.00;181522;1259;43003;-61
2023/05/13 05:59:44;;;;;;;9.00;6.50;;;;;;;19.38;52.27;100758.24;143103;1287;44595;-89
2023/05/13 06:03:47;;;;;;;7.60;5.60;;;;;;;19.44;51.60;100759.17;180870;1262;44133;-89
2023/05/13 06:07:51;;;;;;;9.40;6.20;;;;;;;19.49;52.00;100754.67;180942;1261;43784;-89
2023/05/13 06:11:55;;;;;;;7.10;5.60;;;;;;;19.45;52.09;100755.13;181012;1261;44069;-90
2023/05/13 06:16:00;;;;;;;7.60;6.20;;;;;;;19.60;52.07;100751.52;181199;1261;58319;-91
2023/05/13 06:20:06;;;;;;;12.20;7.00;;;;;;;19.73;50.83;100756.45;181272;1260;84154;-61
2023/05/13 06:24:10;;;;;;;10.00;8.00;;;;;;;19.62;50.29;100760.92;181510;1259;43654;-60
2023/05/13 06:29:07;;;;;;;7.50;5.80;;;;;;;19.43;50.32;100757.84;181343;1260;43167;-60
2023/05/13 06:33:11;;;;;;;12.30;8.70;;;;;;;19.32;51.35;100759.64;181492;1259;43682;-60
2023/05/13 06:37:14;;;;;;;8.80;6.30;;;;;;;19.17;50.79;100759.09;181378;1259;58018;-61
2023/05/13 06:41:17;;;;;;;11.40;7.60;;;;;;;18.96;50.89;100761.77;181488;1260;43246;-60
2023/05/13 06:45:22;;;;;;;13.80;7.40;;;;;;;18.71;52.58;100767.11;181459;1260;43696;-60
2023/05/13 06:50:24;;;;;;;13.20;8.00;;;;;;;18.64;53.49;100773.06;181418;1259;43122;-60
2023/05/13 06:54:27;;;;;;;10.60;7.80;;;;;;;18.67;52.75;100773.63;181468;1259;43068;-60
2023/05/13 06:58:30;;;;;;;12.60;7.60;;;;;;;18.65;52.82;100771.03;181476;1260;57231;-60
2023/05/13 07:02:33;;;;;;;11.00;8.60;;;;;;;18.65;53.39;100774.03;181445;1260;43575;-60
2023/05/13 07:06:47;;;;;;;10.60;8.90;;;;;;;18.64;53.66;100778.83;181520;1260;43163;-60
2023/05/13 07:10:50;;;;;;;8.70;7.00;;;;;;;18.80;53.96;100775.36;181449;1260;43154;-60
2023/05/13 07:14:53;;;;;;;13.00;8.00;;;;;;;18.82;54.25;100771.35;181496;1260;43378;-60
2023/05/13 07:18:56;;;;;;;10.30;8.00;;;;;;;18.87;54.69;100772.06;181381;1260;58839;-59
2023/05/13 07:22:59;;;;;;;10.90;7.60;;;;;;;19.06;54.65;100772.31;181422;1260;43713;-58
2023/05/13 07:27:03;;;;;;;14.30;6.80;;;;;;;19.10;54.34;100767.77;181508;1260;43125;-59
2023/05/13 07:31:08;;;;;;;10.30;6.90;;;;;;;19.08;54.89;100766.63;181480;1259;43241;-59
2023/05/13 07:35:11;;;;;;;9.70;7.60;;;;;;;19.10;53.96;100769.34;181457;1260;43077;-59
2023/05/13 07:39:14;;;;;;;11.70;8.20;;;;;;;19.24;53.72;100766.23;181480;1260;59383;-58
2023/05/13 07:43:22;;;;;;;10.00;7.60;;;;;;;19.39;54.02;100764.04;181588;1260;43398;-59
2023/05/13 07:47:27;;;;;;;10.30;7.50;;;;;;;19.59;54.98;100761.95;181560;1262;43232;-59
2023/05/13 07:56:34;;;;;;;7.60;6.00;;;;;;;19.95;53.75;100767.14;181468;1260;43700;-60
2023/05/13 08:00:37;;;;;;;10.90;7.80;;;;;;;19.98;53.66;100771.55;181465;1260;59304;-60
2023/05/13 08:14:24;;;;;;;9.80;7.00;;;;;;;20.14;54.22;100778.09;143311;1289;43695;-60
2023/05/13 08:29:49;;;;;;;11.70;7.70;;;;;;;19.95;53.08;100782.88;181448;1260;43645;-60
2023/05/13 08:33:53;;;;;;;15.00;8.60;;;;;;;19.87;54.69;100781.39;181444;1261;43034;-62
2023/05/13 08:37:58;;;;;;;13.10;6.90;;;;;;;19.96;54.69;100783.06;181546;1260;43415;-61
2023/05/13 08:42:03;;;;;;;11.80;8.60;;;;;;;20.02;53.66;100782.56;181460;1260;43013;-60
2023/05/13 08:46:09;;;;;;;12.50;8.20;;;;;;;19.71;54.21;100780.98;181411;1260;58067;-60
2023/05/13 08:50:12;;;;;;;10.00;7.90;;;;;;;19.72;54.97;100777.88;181343;1260;43361;-60
2023/05/13 08:54:16;;;;;;;148.80;34.00;;;;;;;19.71;55.13;100780.27;181336;1260;43025;-60
2023/05/13 08:58:20;;;;;;;11.20;7.50;;;;;;;19.68;57.19;100776.98;181477;1260;43404;-60
2023/05/13 09:02:23;;;;;;;14.30;8.00;;;;;;;19.76;56.39;100778.80;181450;1260;43683;-61
2023/05/13 09:06:38;;;;;;;12.00;7.80;;;;;;;20.00;57.49;100779.17;181472;1260;58396;-61
2023/05/13 09:10:41;;;;;;;10.20;6.50;;;;;;;20.19;57.04;100782.41;181453;1263;43081;-61
2023/05/13 09:14:44;;;;;;;13.30;7.00;;;;;;;20.37;56.22;100782.31;181402;1260;43636;-61
2023/05/13 09:19:38;;;;;;;12.90;8.30;;;;;;;20.46;56.54;100784.42;181480;1260;43267;-60
2023/05/13 09:23:41;;;;;;;9.00;7.20;;;;;;;20.54;56.29;100785.65;181431;1260;42987;-60
2023/05/13 09:27:57;;;;;;;8.10;7.00;;;;;;;20.63;57.42;100785.69;181444;1260;58057;-60
2023/05/13 09:32:05;;;;;;;14.60;7.00;;;;;;;20.65;58.09;100786.89;181426;1260;43734;-60
2023/05/13 09:36:09;;;;;;;10.90;6.20;;;;;;;20.75;56.87;100785.77;181457;1260;43052;-61
2023/05/13 09:40:14;;;;;;;9.30;6.60;;;;;;;20.72;57.31;100785.73;181413;1260;43826;-61
2023/05/13 09:44:20;;;;;;;11.10;7.40;;;;;;;20.79;58.04;100786.86;181382;1260;43840;-60
2023/05/13 09:48:26;;;;;;;8.30;5.00;;;;;;;20.97;57.91;100784.77;181316;1260;58812;-61
2023/05/13 09:52:34;;;;;;;9.10;4.00;;;;;;;21.03;56.49;100777.10;181344;1260;43115;-61
2023/05/13 09:56:36;;;;;;;4.30;3.70;;;;;;;20.92;55.35;100784.77;181458;1260;43681;-61
2023/05/13 10:00:40;;;;;;;5.50;5.00;;;;;;;20.92;56.26;100781.98;181365;1261;43006;-61
2023/05/13 10:04:44;;;;;;;5.50;4.50;;;;;;;21.00;56.20;100780.63;181243;1260;43434;-62
2023/05/13 10:08:55;;;;;;;35.40;6.50;;;;;;;21.04;54.28;100779.67;181361;1260;57829;-62
2023/05/13 10:13:04;;;;;;;3.30;2.50;;;;;;;21.16;54.97;100781.15;181356;1260;43412;-61
2023/05/13 10:17:08;;;;;;;4.70;3.20;;;;;;;21.19;52.98;100779.34;181359;1260;43810;-60
2023/05/13 10:21:38;;;;;;;9.90;5.20;;;;;;;21.13;53.68;100778.91;181413;1260;43124;-60
2023/05/13 10:25:42;;;;;;;2.60;2.30;;;;;;;21.14;52.80;100783.70;181376;1260;43066;-60
2023/05/13 10:29:45;;;;;;;5.50;3.70;;;;;;;21.23;52.99;100782.43;181343;1260;58083;-61
2023/05/13 10:33:51;;;;;;;3.90;2.80;;;;;;;21.29;52.67;100782.11;181484;1260;43776;-61
2023/05/13 10:38:23;;;;;;;3.30;2.20;;;;;;;21.39;51.78;100780.67;181420;1260;43397;-62
2023/05/13 10:42:38;;;;;;;4.00;2.80;;;;;;;21.58;52.56;100774.50;181452;1260;43070;-60
2023/05/13 10:46:41;;;;;;;4.30;2.40;;;;;;;21.84;51.17;100774.48;181471;1260;43057;-61
2023/05/13 10:50:54;;;;;;;14.20;11.30;;;;;;;22.03;48.96;100768.55;181420;1260;59376;-61
2023/05/13 10:55:01;;;;;;;5.60;3.00;;;;;;;22.23;51.72;100766.46;181398;1261;43799;-60
2023/05/13 10:59:05;;;;;;;7.20;2.20;;;;;;;22.40;49.45;100770.27;181399;1260;43144;-61
2023/05/13 11:03:17;;;;;;;6.70;3.40;;;;;;;22.55;50.29;100769.33;181465;1260;43665;-61
2023/05/13 11:07:21;;;;;;;5.70;3.60;;;;;;;22.62;49.49;100770.64;181383;1260;43056;-61
2023/05/13 11:11:28;;;;;;;6.20;3.50;;;;;;;22.50;47.49;100766.01;181425;1260;58073;-61
2023/05/13 11:15:45;;;;;;;3.90;2.80;;;;;;;22.16;49.07;100770.68;181428;1260;43422;-61
2023/05/13 11:19:51;;;;;;;7.50;3.40;;;;;;;21.96;49.68;100772.09;181446;1260;43715;-61
2023/05/13 11:24:06;;;;;;;3.30;2.70;;;;;;;21.82;49.52;100769.50;181387;1260;43154;-61
2023/05/13 11:28:17;;;;;;;5.30;4.50;;;;;;;21.58;51.22;100769.05;181359;1264;43002;-61
2023/05/13 11:32:57;;;;;;;4.10;3.70;;;;;;;21.31;53.91;100774.28;181332;1261;58089;-60
2023/05/13 11:37:04;;;;;;;6.90;3.70;;;;;;;21.04;51.80;100778.92;181293;1262;43768;-61
2023/05/13 11:41:07;;;;;;;30.00;7.90;;;;;;;20.96;53.15;100780.89;181407;1262;43016;-62
2023/05/13 11:45:10;;;;;;;5.00;3.40;;;;;;;20.95;54.79;100779.45;181265;1262;43658;-65
2023/05/13 11:49:32;;;;;;;6.00;3.90;;;;;;;20.95;56.72;100780.29;181277;1260;43618;-65
2023/05/13 11:53:35;;;;;;;14.50;6.70;;;;;;;21.03;57.40;100778.49;181247;1262;58208;-65
2023/05/13 11:57:37;;;;;;;6.80;4.40;;;;;;;21.02;58.12;100776.58;181344;1262;43852;-65
2023/05/13 12:01:41;;;;;;;5.20;4.00;;;;;;;21.12;58.47;100773.68;181349;1262;43074;-64
2023/05/13 12:05:50;;;;;;;4.50;3.70;;;;;;;21.05;53.38;100770.84;181289;1262;43818;-64
2023/05/13 12:09:55;;;;;;;8.70;5.50;;;;;;;21.04;55.14;100771.81;181358;1261;43033;-65
2023/05/13 12:13:59;;;;;;;7.90;4.10;;;;;;;21.10;57.08;100770.11;181374;1260;58570;-65
2023/05/13 12:18:02;;;;;;;65.40;14.50;;;;;;;21.17;56.19;100768.70;181308;1264;43494;-65
2023/05/13 12:22:06;;;;;;;4.70;4.30;;;;;;;21.17;55.57;100767.98;181240;1263;43722;-64
2023/05/13 12:26:10;;;;;;;13.40;6.50;;;;;;;21.24;54.78;100763.18;181260;1260;43251;-64
2023/05/13 12:30:13;;;;;;;3.80;3.40;;;;;;;21.36;54.01;100759.64;181450;1259;43377;-65
2023/05/13 12:34:29;;;;;;;5.40;3.20;;;;;;;21.48;55.03;100755.09;181311;1260;58152;-65
2023/05/13 12:38:32;;;;;;;3.90;3.50;;;;;;;21.66;54.35;100758.92;181231;1260;43702;-65
2023/05/13 12:42:35;;;;;;;5.90;3.80;;;;;;;21.70;53.97;100758.66;181311;1259;43752;-65
2023/05/13 12:46:49;;;;;;;8.80;5.10;;;;;;;21.75;53.90;100761.34;181379;1260;43822;-65
2023/05/13 12:50:52;;;;;;;5.10;3.90;;;;;;;21.84;53.34;100763.63;181424;1260;43861;-62
2023/05/13 13:05:29;;;;;;;7.80;3.30;;;;;;;21.98;52.57;100763.71;181228;1262;43020;-64
2023/05/13 13:09:31;;;;;;;10.90;5.80;;;;;;;21.96;51.94;100762.06;181334;1262;43656;-64
2023/05/13 13:13:35;;;;;;;21.30;6.10;;;;;;;21.96;52.72;100758.02;181350;1262;43863;-64
2023/05/13 13:17:40;;;;;;;5.70;3.60;;;;;;;21.99;52.54;100754.59;181240;1261;58041;-64
2023/05/13 13:21:43;;;;;;;6.60;4.40;;;;;;;21.93;51.15;100752.40;181282;1262;43088;-63
2023/05/13 13:25:47;;;;;;;9.50;6.00;;;;;;;21.96;52.23;100749.10;181323;1261;43964;-64
2023/05/13 13:29:50;;;;;;;79.10;20.40;;;;;;;21.96;53.03;100747.40;181276;1261;43696;-64
2023/05/13 13:33:53;;;;;;;7.90;5.80;;;;;;;21.96;53.81;100745.48;181304;1262;43126;-63
2023/05/13 13:37:56;;;;;;;9.20;4.90;;;;;;;21.97;54.06;100743.40;181291;1264;59364;-64
2023/05/13 13:41:59;;;;;;;6.90;4.40;;;;;;;21.92;53.83;100743.28;181283;1262;43079;-64
2023/05/13 13:46:02;;;;;;;4.90;3.70;;;;;;;21.86;53.63;100743.69;181329;1261;43043;-64
2023/05/13 13:50:05;;;;;;;6.60;4.00;;;;;;;21.77;54.99;100746.58;181278;1261;43728;-63
2023/05/13 13:54:33;;;;;;;5.80;3.40;;;;;;;21.50;55.51;100742.45;181326;1262;43480;-64
2023/05/13 13:58:36;;;;;;;6.20;5.00;;;;;;;21.33;59.21;100743.04;181309;1262;58992;-64
2023/05/13 14:02:40;;;;;;;4.80;3.40;;;;;;;21.24;60.56;100744.83;181344;1261;43249;-64
2023/05/13 14:06:43;;;;;;;8.50;5.50;;;;;;;21.09;60.98;100744.67;181327;1262;43686;-64
2023/05/13 14:10:57;;;;;;;10.40;5.20;;;;;;;20.91;61.50;100751.06;181415;1262;43667;-64
2023/05/13 14:15:00;;;;;;;13.60;6.00;;;;;;;20.92;61.96;100750.45;181383;1261;43063;-66
2023/05/13 14:19:03;;;;;;;6.70;5.00;;;;;;;20.91;61.56;100750.92;181306;1261;58950;-63
2023/05/13 14:23:06;;;;;;;9.40;4.30;;;;;;;20.93;59.72;100750.87;181256;1261;43646;-63
2023/05/13 14:27:09;;;;;;;5.90;3.30;;;;;;;20.94;59.75;100746.36;181399;1262;42998;-65
2023/05/13 14:31:11;;;;;;;6.90;4.20;;;;;;;21.07;60.96;100741.82;181370;1261;43797;-64
2023/05/13 14:35:54;;;;;;;4.80;3.80;;;;;;;21.23;60.40;100736.53;181309;1261;43822;-63
2023/05/13 14:39:56;;;;;;;5.70;4.30;;;;;;;21.26;59.53;100735.88;181341;1260;58313;-65
2023/05/13 14:44:00;;;;;;;5.20;3.80;;;;;;;21.32;59.58;100736.83;181343;1261;43208;-65
2023/05/13 14:48:03;;;;;;;4.60;4.10;;;;;;;21.45;59.65;100737.42;181347;1262;43337;-63
2023/05/13 14:52:08;;;;;;;5.80;4.10;;;;;;;21.58;59.95;100742.79;181355;1262;43634;-64
2023/05/13 14:56:17;;;;;;;11.60;5.20;;;;;;;21.54;59.13;100740.38;181193;1261;43798;-91
2023/05/13 15:00:36;;;;;;;7.50;4.70;;;;;;;21.62;60.78;100745.57;181273;1259;57926;-90
2023/05/13 15:04:41;;;;;;;5.10;3.90;;;;;;;21.64;60.03;100738.41;181180;1259;44003;-90
2023/05/13 15:08:46;;;;;;;5.80;4.20;;;;;;;21.62;58.06;100739.88;181178;1259;43935;-91
2023/05/13 15:21:36;;;;;;;5.90;4.70;;;;;;;21.19;59.22;100747.04;174014;1256;83073;-65
2023/05/13 15:25:41;;;;;;;6.40;3.90;;;;;;;21.13;59.65;100742.37;181558;1260;43694;-63
2023/05/13 15:29:45;;;;;;;4.50;3.40;;;;;;;21.18;57.06;100734.91;181560;1260;43732;-63
2023/05/13 15:33:49;;;;;;;10.20;4.70;;;;;;;21.27;56.37;100740.50;181425;1259;43797;-63
2023/05/13 15:37:56;;;;;;;4.60;3.60;;;;;;;21.31;58.39;100741.63;181591;1259;43603;-65
2023/05/13 15:42:01;;;;;;;5.40;3.90;;;;;;;21.24;59.24;100745.58;181540;1258;59509;-65
2023/05/13 15:46:07;;;;;;;10.90;4.70;;;;;;;21.21;59.29;100739.61;181468;1260;43497;-65
2023/05/13 15:50:10;;;;;;;;;;;;;;;21.23;56.09;100736.45;181401;1260;44940;-65
2023/05/13 15:54:14;;;;;;;7.80;5.40;;;;;;;21.16;56.01;100732.42;181641;1259;42862;-65
2023/05/13 15:58:17;;;;;;;7.10;5.00;;;;;;;21.07;54.58;100728.46;181736;1259;43537;-64
2023/05/13 16:02:24;;;;;;;47.40;10.80;;;;;;;20.81;54.43;100730.75;181505;1259;176158;-64
2023/05/13 16:06:27;;;;;;;8.90;7.60;;;;;;;20.52;55.25;100724.92;181645;1259;43425;-65
2023/05/13 16:10:30;;;;;;;10.30;6.40;;;;;;;20.46;55.90;100721.00;181607;1259;43549;-64
2023/05/13 16:14:33;;;;;;;9.20;6.60;;;;;;;20.43;55.39;100718.95;181632;1260;43725;-65
2023/05/13 16:18:36;;;;;;;8.50;6.60;;;;;;;20.29;55.29;100715.54;181575;1259;43805;-65
2023/05/13 16:23:38;;;;;;;12.00;5.50;;;;;;;20.14;55.47;100715.38;181463;1260;58774;-63
2023/05/13 16:27:44;;;;;;;6.80;5.10;;;;;;;20.12;57.58;100713.14;181620;1259;43783;-60
2023/05/13 16:31:47;;;;;;;6.60;4.40;;;;;;;20.15;61.98;100711.66;181647;1260;43101;-60
2023/05/13 16:35:50;;;;;;;9.00;5.90;;;;;;;20.10;63.82;100709.61;181442;1259;43800;-61
2023/05/13 16:39:53;;;;;;;8.40;4.70;;;;;;;20.07;63.76;100708.36;181697;1260;43103;-61
2023/05/13 16:43:56;;;;;;;4.70;4.30;;;;;;;20.10;65.40;100706.62;181612;1259;57423;-60
2023/05/13 16:47:59;;;;;;;5.80;4.70;;;;;;;20.12;64.47;100702.38;181499;1260;43114;-60
2023/05/13 16:52:03;;;;;;;8.70;4.50;;;;;;;20.12;64.94;100705.66;181478;1260;43093;-61
2023/05/13 16:56:12;;;;;;;6.10;5.10;;;;;;;20.04;66.71;100703.69;181654;1259;43159;-61
2023/05/13 17:05:30;;;;;;;6.60;4.70;;;;;;;19.78;68.37;100706.66;143371;1262;58206;-59
2023/05/13 17:09:34;;;;;;;5.60;4.70;;;;;;;19.52;68.07;100701.42;181360;1260;43866;-59
2023/05/13 17:13:43;;;;;;;6.40;4.90;;;;;;;19.34;68.32;100698.20;181365;1260;44110;-59
2023/05/13 17:17:46;;;;;;;6.80;5.70;;;;;;;19.12;68.63;100697.42;181445;1260;43038;-59
2023/05/13 17:39:09;;;;;;;6.20;5.30;;;;;;;18.97;69.27;100699.46;177464;1285;580250;-60
2023/05/13 17:53:33;;;;;;;12.70;6.40;;;;;;;18.31;72.26;100702.48;178724;1270;58227;-60
2023/05/13 17:57:36;;;;;;;14.40;6.70;;;;;;;18.06;70.89;100700.59;180581;1272;43820;-60
2023/05/13 18:01:39;;;;;;;13.50;6.60;;;;;;;17.86;72.57;100700.26;180217;1270;43079;-60
2023/05/13 18:05:42;;;;;;;7.00;5.90;;;;;;;17.68;72.67;100698.85;180645;1273;43327;-60
2023/05/13 18:09:45;;;;;;;12.80;7.30;;;;;;;17.52;72.19;100696.10;180521;1271;43047;-61
2023/05/13 18:13:52;;;;;;;15.10;8.30;;;;;;;17.41;72.48;100700.59;180510;1273;59265;-60
2023/05/13 18:18:05;;;;;;;12.60;8.90;;;;;;;17.30;73.32;100704.66;180693;1270;43175;-61
2023/05/13 18:22:08;;;;;;;12.30;7.90;;;;;;;17.19;71.80;100706.59;180496;1273;43634;-61
2023/05/13 18:26:18;;;;;;;10.90;6.70;;;;;;;17.11;69.99;100706.20;180622;1273;43066;-61
2023/05/13 18:30:21;;;;;;;8.50;5.30;;;;;;;17.06;70.38;100705.27;180697;1273;42992;-61
2023/05/13 18:34:30;;;;;;;21.10;9.40;;;;;;;17.02;70.66;100711.65;180724;1271;59216;-61
2023/05/13 18:38:33;;;;;;;142.10;25.50;;;;;;;16.93;74.67;100715.86;180724;1273;43127;-61
2023/05/13 18:42:36;;;;;;;27.30;10.70;;;;;;;16.84;75.32;100720.91;180768;1273;43434;-61
2023/05/13 18:47:10;;;;;;;29.80;9.80;;;;;;;16.79;76.28;100727.54;180706;1270;43158;-61
2023/05/13 18:51:15;;;;;;;27.60;12.00;;;;;;;16.72;77.01;100730.52;180623;1272;43064;-61
2023/05/13 18:55:18;;;;;;;19.10;8.60;;;;;;;16.64;77.30;100734.95;180564;1272;58038;-61
2023/05/13 18:59:20;;;;;;;17.30;9.30;;;;;;;16.54;76.89;100732.00;180672;1273;43073;-61
2023/05/13 19:04:29;;;;;;;21.90;11.90;;;;;;;16.43;77.97;100732.90;180669;1274;43017;-61
2023/05/13 19:08:32;;;;;;;22.40;11.40;;;;;;;16.28;78.42;100737.04;180709;1273;43704;-61
2023/05/13 19:12:35;;;;;;;20.20;10.50;;;;;;;16.17;78.12;100737.59;180697;1272;43653;-60
2023/05/13 19:16:37;;;;;;;20.30;13.70;;;;;;;16.07;78.55;100739.83;180637;1274;58037;-61
2023/05/13 19:20:42;;;;;;;30.20;15.40;;;;;;;15.96;78.14;100739.81;180582;1274;43169;-61
2023/05/13 19:24:45;;;;;;;24.80;18.30;;;;;;;15.80;78.79;100745.25;180643;1272;43783;-61
2023/05/13 19:28:47;;;;;;;27.20;15.20;;;;;;;15.66;78.96;100748.90;180431;1271;43213;-61
2023/05/13 19:32:50;;;;;;;27.90;16.60;;;;;;;15.46;78.56;100749.02;180718;1273;43662;-61
2023/05/13 19:36:54;;;;;;;22.60;14.80;;;;;;;15.24;78.17;100747.84;180710;1273;59189;-61
2023/05/13 19:41:00;;;;;;;24.30;15.20;;;;;;;15.02;78.33;100748.77;180323;1273;43114;-61
2023/05/13 19:45:06;;;;;;;27.50;15.50;;;;;;;14.85;78.90;100748.05;180622;1272;43399;-61
2023/05/13 19:49:12;;;;;;;;;;;;;;;14.73;80.30;100750.95;180743;1273;43756;-61
2023/05/13 19:53:34;;;;;;;18.70;12.00;;;;;;;14.62;80.20;100752.65;180769;1270;42818;-61
2023/05/13 19:57:41;;;;;;;20.80;12.30;;;;;;;14.49;81.15;100748.83;180348;1274;58236;-61
2023/05/13 20:01:44;;;;;;;299.20;57.30;;;;;;;14.34;79.96;100747.65;180580;1273;43788;-61
2023/05/13 20:05:50;;;;;;;307.80;69.00;;;;;;;14.17;80.97;100748.80;180491;1273;43102;-61
2023/05/13 20:09:52;;;;;;;;;;;;;;;14.01;82.63;100751.66;180666;1272;43476;-60
2023/05/13 20:14:02;;;;;;;98.30;28.20;;;;;;;13.88;82.74;100754.22;180717;1271;43523;-60
2023/05/13 20:18:04;;;;;;;67.50;25.00;;;;;;;13.75;82.75;100752.85;180090;1273;58162;-61